Avalon, California
Current Conditions -  °F | °C
As of 1:51 AM on Thursday 23 Oct 2014 (Local Time) from KAVX Reporting Station
Clear Clear  
Wind Chill: 70°   Ceiling: Unl
Heat Index: 70°   Visibility: 10mi
Dew Point: 43°   Wind: 3mph
Humidity: 38%   Direction: 10°N
Pressure: 30"   Gusts: NA
Location:  33.34°N, 118.33°W
Report Text: KAVX 230851Z AUTO 01003KT 10SM CLR 21/06 A3000 RMK AO2 SLP133 T02110061 56006
Loading
Personal Weather Stations






























Interactive Weather Map
Tropical Storm Tracking
New forecast layout! Learn more

10-Day Weather Forecast

Advertisements
Track Severe Weather on mobile